sensor_id;sensor_type;location;lat;lon;timestamp;pressure;altitude;pressure_sealevel;temperature;humidity
75972;BME280;64651;47.540;19.088;2024-02-26T00:01:31;99696.72;;;10.27;100.00
75972;BME280;64651;47.540;19.088;2024-02-26T00:06:34;99681.59;;;10.00;100.00
75972;BME280;64651;47.540;19.088;2024-02-26T00:11:37;99678.00;;;10.05;100.00
75972;BME280;64651;47.540;19.088;2024-02-26T00:16:40;99683.72;;;10.08;100.00
75972;BME280;64651;47.540;19.088;2024-02-26T00:21:43;99689.69;;;10.15;100.00
75972;BME280;64651;47.540;19.088;2024-02-26T00:26:45;99669.06;;;10.18;100.00
75972;BME280;64651;47.540;19.088;2024-02-26T00:31:47;99684.44;;;10.19;100.00
75972;BME280;64651;47.540;19.088;2024-02-26T00:36:50;99677.62;;;10.11;100.00
75972;BME280;64651;47.540;19.088;2024-02-26T00:41:52;99667.44;;;10.17;100.00
75972;BME280;64651;47.540;19.088;2024-02-26T00:46:54;99663.66;;;10.08;100.00
75972;BME280;64651;47.540;19.088;2024-02-26T00:51:56;99656.59;;;10.02;100.00
75972;BME280;64651;47.540;19.088;2024-02-26T00:56:58;99664.59;;;9.98;100.00
75972;BME280;64651;47.540;19.088;2024-02-26T01:02:00;99667.44;;;9.93;100.00
75972;BME280;64651;47.540;19.088;2024-02-26T01:07:04;99660.91;;;10.08;100.00
75972;BME280;64651;47.540;19.088;2024-02-26T01:12:07;99646.88;;;10.09;100.00
75972;BME280;64651;47.540;19.088;2024-02-26T01:17:09;99647.91;;;10.13;100.00
75972;BME280;64651;47.540;19.088;2024-02-26T01:22:12;99653.72;;;10.12;100.00
75972;BME280;64651;47.540;19.088;2024-02-26T01:27:14;99641.72;;;10.27;100.00
75972;BME280;64651;47.540;19.088;2024-02-26T01:32:17;99646.78;;;10.38;100.00
75972;BME280;64651;47.540;19.088;2024-02-26T01:37:20;99638.69;;;10.47;100.00
75972;BME280;64651;47.540;19.088;2024-02-26T01:42:22;99628.44;;;10.52;100.00
75972;BME280;64651;47.540;19.088;2024-02-26T01:47:26;99634.13;;;10.56;100.00
75972;BME280;64651;47.540;19.088;2024-02-26T01:52:29;99630.00;;;10.58;100.00
75972;BME280;64651;47.540;19.088;2024-02-26T01:57:31;99632.75;;;10.58;100.00
75972;BME280;64651;47.540;19.088;2024-02-26T02:02:34;99629.44;;;10.56;100.00
75972;BME280;64651;47.540;19.088;2024-02-26T02:07:36;99620.56;;;10.46;100.00
75972;BME280;64651;47.540;19.088;2024-02-26T02:12:38;99619.19;;;10.43;100.00
75972;BME280;64651;47.540;19.088;2024-02-26T02:17:42;99626.94;;;10.41;100.00
75972;BME280;64651;47.540;19.088;2024-02-26T02:22:45;99623.12;;;10.37;100.00
75972;BME280;64651;47.540;19.088;2024-02-26T02:27:48;99617.97;;;10.36;100.00
75972;BME280;64651;47.540;19.088;2024-02-26T02:32:50;99628.22;;;10.30;100.00
75972;BME280;64651;47.540;19.088;2024-02-26T02:37:54;99630.00;;;10.40;100.00
75972;BME280;64651;47.540;19.088;2024-02-26T02:42:56;99631.03;;;10.44;100.00
75972;BME280;64651;47.540;19.088;2024-02-26T02:47:58;99619.44;;;10.47;100.00
75972;BME280;64651;47.540;19.088;2024-02-26T02:53:01;99627.91;;;10.50;100.00
75972;BME280;64651;47.540;19.088;2024-02-26T02:58:04;99627.69;;;10.47;100.00
75972;BME280;64651;47.540;19.088;2024-02-26T03:03:06;99638.31;;;10.53;100.00
75972;BME280;64651;47.540;19.088;2024-02-26T03:08:08;99635.94;;;10.47;100.00
75972;BME280;64651;47.540;19.088;2024-02-26T03:13:11;99632.06;;;10.48;100.00
75972;BME280;64651;47.540;19.088;2024-02-26T03:18:13;99628.72;;;10.51;100.00
75972;BME280;64651;47.540;19.088;2024-02-26T03:23:16;99624.03;;;10.51;100.00
75972;BME280;64651;47.540;19.088;2024-02-26T03:28:19;99629.25;;;10.53;100.00
75972;BME280;64651;47.540;19.088;2024-02-26T03:33:21;99636.69;;;10.52;100.00
75972;BME280;64651;47.540;19.088;2024-02-26T03:38:23;99621.38;;;10.46;100.00
75972;BME280;64651;47.540;19.088;2024-02-26T03:43:25;99616.16;;;10.45;100.00
75972;BME280;64651;47.540;19.088;2024-02-26T03:48:28;99618.41;;;10.43;100.00
75972;BME280;64651;47.540;19.088;2024-02-26T03:53:30;99611.84;;;10.39;100.00
75972;BME280;64651;47.540;19.088;2024-02-26T03:58:32;99606.22;;;10.30;100.00
75972;BME280;64651;47.540;19.088;2024-02-26T04:03:35;99599.44;;;10.23;100.00
75972;BME280;64651;47.540;19.088;2024-02-26T04:08:37;99595.13;;;10.16;100.00
75972;BME280;64651;47.540;19.088;2024-02-26T04:13:41;99600.97;;;10.10;100.00
75972;BME280;64651;47.540;19.088;2024-02-26T04:18:43;99613.78;;;10.20;100.00
75972;BME280;64651;47.540;19.088;2024-02-26T04:23:46;99613.31;;;10.31;100.00
75972;BME280;64651;47.540;19.088;2024-02-26T04:28:48;99603.16;;;10.32;100.00
75972;BME280;64651;47.540;19.088;2024-02-26T04:33:50;99620.72;;;10.36;100.00
75972;BME280;64651;47.540;19.088;2024-02-26T04:38:53;99610.81;;;10.35;100.00
75972;BME280;64651;47.540;19.088;2024-02-26T04:43:57;99610.66;;;10.26;100.00
75972;BME280;64651;47.540;19.088;2024-02-26T04:48:59;99610.16;;;10.24;100.00
75972;BME280;64651;47.540;19.088;2024-02-26T04:54:02;99607.91;;;10.26;100.00
75972;BME280;64651;47.540;19.088;2024-02-26T04:59:07;99607.31;;;10.29;100.00
75972;BME280;64651;47.540;19.088;2024-02-26T05:04:09;99592.84;;;10.24;100.00
75972;BME280;64651;47.540;19.088;2024-02-26T05:09:12;99594.72;;;10.04;100.00
75972;BME280;64651;47.540;19.088;2024-02-26T05:14:14;99585.72;;;9.80;100.00
75972;BME280;64651;47.540;19.088;2024-02-26T05:19:16;99583.59;;;9.72;100.00
75972;BME280;64651;47.540;19.088;2024-02-26T05:24:19;99601.59;;;9.83;100.00
75972;BME280;64651;47.540;19.088;2024-02-26T05:29:24;99592.91;;;9.95;100.00
75972;BME280;64651;47.540;19.088;2024-02-26T05:34:27;99600.72;;;10.06;100.00
75972;BME280;64651;47.540;19.088;2024-02-26T05:39:29;99601.50;;;10.12;100.00
75972;BME280;64651;47.540;19.088;2024-02-26T05:44:31;99595.13;;;10.16;100.00
75972;BME280;64651;47.540;19.088;2024-02-26T05:49:33;99587.63;;;10.22;100.00
75972;BME280;64651;47.540;19.088;2024-02-26T05:54:36;99595.22;;;10.30;100.00
75972;BME280;64651;47.540;19.088;2024-02-26T05:59:38;99601.22;;;10.32;100.00
75972;BME280;64651;47.540;19.088;2024-02-26T06:04:40;99595.34;;;10.39;100.00
75972;BME280;64651;47.540;19.088;2024-02-26T06:09:42;99605.25;;;10.40;100.00
75972;BME280;64651;47.540;19.088;2024-02-26T06:14:45;99608.34;;;10.52;100.00
75972;BME280;64651;47.540;19.088;2024-02-26T06:19:48;99602.41;;;10.64;100.00
75972;BME280;64651;47.540;19.088;2024-02-26T06:24:50;99612.37;;;10.60;98.63
75972;BME280;64651;47.540;19.088;2024-02-26T06:29:52;99620.63;;;10.60;98.05
75972;BME280;64651;47.540;19.088;2024-02-26T06:34:58;99629.00;;;10.68;97.46
75972;BME280;64651;47.540;19.088;2024-02-26T06:40:01;99636.97;;;10.70;97.12
75972;BME280;64651;47.540;19.088;2024-02-26T06:45:06;99627.56;;;10.89;96.67
75972;BME280;64651;47.540;19.088;2024-02-26T06:50:11;99627.09;;;11.01;96.33
75972;BME280;64651;47.540;19.088;2024-02-26T06:55:14;99623.31;;;10.97;95.77
75972;BME280;64651;47.540;19.088;2024-02-26T07:00:23;99618.25;;;11.18;95.45
75972;BME280;64651;47.540;19.088;2024-02-26T07:05:25;99632.06;;;11.31;94.73
75972;BME280;64651;47.540;19.088;2024-02-26T07:10:27;99633.00;;;11.54;93.49
75972;BME280;64651;47.540;19.088;2024-02-26T07:15:29;99625.50;;;12.01;92.50
75972;BME280;64651;47.540;19.088;2024-02-26T07:20:32;99628.97;;;12.06;90.94
75972;BME280;64651;47.540;19.088;2024-02-26T07:25:34;99632.84;;;12.19;90.16
75972;BME280;64651;47.540;19.088;2024-02-26T07:30:36;99625.53;;;12.37;89.53
75972;BME280;64651;47.540;19.088;2024-02-26T07:35:38;99638.50;;;12.72;87.64
75972;BME280;64651;47.540;19.088;2024-02-26T07:40:40;99622.78;;;13.17;84.73
75972;BME280;64651;47.540;19.088;2024-02-26T07:46:00;99632.47;;;12.70;84.40
75972;BME280;64651;47.540;19.088;2024-02-26T07:51:02;99637.00;;;12.66;85.15
75972;BME280;64651;47.540;19.088;2024-02-26T07:56:05;99646.78;;;12.72;84.64
75972;BME280;64651;47.540;19.088;2024-02-26T08:01:07;99644.19;;;12.53;84.90
75972;BME280;64651;47.540;19.088;2024-02-26T08:06:09;99638.03;;;13.15;83.56
75972;BME280;64651;47.540;19.088;2024-02-26T08:11:14;99650.37;;;12.95;83.11
75972;BME280;64651;47.540;19.088;2024-02-26T08:16:16;99653.16;;;12.59;83.30
75972;BME280;64651;47.540;19.088;2024-02-26T08:21:20;99660.81;;;12.98;82.50
75972;BME280;64651;47.540;19.088;2024-02-26T08:26:22;99658.59;;;13.09;81.87
75972;BME280;64651;47.540;19.088;2024-02-26T08:31:26;99653.22;;;13.57;80.96
75972;BME280;64651;47.540;19.088;2024-02-26T08:36:33;99655.22;;;13.34;79.93
75972;BME280;64651;47.540;19.088;2024-02-26T08:41:36;99651.13;;;13.31;80.05
75972;BME280;64651;47.540;19.088;2024-02-26T08:46:38;99649.13;;;13.46;80.39
75972;BME280;64651;47.540;19.088;2024-02-26T08:51:43;99644.78;;;13.62;79.75
75972;BME280;64651;47.540;19.088;2024-02-26T08:56:46;99666.75;;;13.36;79.34
75972;BME280;64651;47.540;19.088;2024-02-26T09:01:48;99656.66;;;13.09;80.57
75972;BME280;64651;47.540;19.088;2024-02-26T09:06:50;99660.28;;;12.96;80.96
75972;BME280;64651;47.540;19.088;2024-02-26T09:11:52;99663.78;;;12.88;81.33
75972;BME280;64651;47.540;19.088;2024-02-26T09:16:54;99675.94;;;12.87;82.27
75972;BME280;64651;47.540;19.088;2024-02-26T09:21:57;99670.00;;;12.71;81.68
75972;BME280;64651;47.540;19.088;2024-02-26T09:26:59;99671.47;;;12.91;81.17
75972;BME280;64651;47.540;19.088;2024-02-26T09:32:02;99675.28;;;13.04;80.38
75972;BME280;64651;47.540;19.088;2024-02-26T09:37:04;99670.84;;;13.69;79.04
75972;BME280;64651;47.540;19.088;2024-02-26T09:42:19;99667.75;;;14.02;77.03
75972;BME280;64651;47.540;19.088;2024-02-26T09:47:23;99677.19;;;13.70;76.50
75972;BME280;64651;47.540;19.088;2024-02-26T09:52:28;99682.28;;;14.25;75.73
75972;BME280;64651;47.540;19.088;2024-02-26T09:57:31;99689.88;;;14.50;73.63
75972;BME280;64651;47.540;19.088;2024-02-26T10:02:35;99686.31;;;14.67;73.46
75972;BME280;64651;47.540;19.088;2024-02-26T10:07:38;99676.38;;;14.66;73.96
75972;BME280;64651;47.540;19.088;2024-02-26T10:12:41;99689.63;;;14.29;74.88
75972;BME280;64651;47.540;19.088;2024-02-26T10:17:43;99683.53;;;14.01;76.13
75972;BME280;64651;47.540;19.088;2024-02-26T10:22:46;99675.47;;;14.31;75.46
75972;BME280;64651;47.540;19.088;2024-02-26T10:27:48;99674.19;;;14.37;74.51
75972;BME280;64651;47.540;19.088;2024-02-26T10:32:51;99671.28;;;14.42;73.63
75972;BME280;64651;47.540;19.088;2024-02-26T10:37:54;99671.44;;;15.49;69.75
75972;BME280;64651;47.540;19.088;2024-02-26T10:42:58;99664.59;;;16.81;64.75
75972;BME280;64651;47.540;19.088;2024-02-26T10:48:00;99649.34;;;21.83;49.92
75972;BME280;64651;47.540;19.088;2024-02-26T10:53:03;99644.94;;;21.40;48.03
75972;BME280;64651;47.540;19.088;2024-02-26T10:58:08;99642.13;;;20.82;49.26
75972;BME280;64651;47.540;19.088;2024-02-26T11:03:11;99629.06;;;23.58;44.46
75972;BME280;64651;47.540;19.088;2024-02-26T11:08:18;99624.56;;;22.31;44.68
75972;BME280;64651;47.540;19.088;2024-02-26T11:13:21;99632.88;;;20.27;50.46
75972;BME280;64651;47.540;19.088;2024-02-26T11:18:27;99627.91;;;18.87;53.23
75972;BME280;64651;47.540;19.088;2024-02-26T11:23:29;99624.25;;;19.70;51.71
75972;BME280;64651;47.540;19.088;2024-02-26T11:28:32;99624.62;;;20.85;49.06
75972;BME280;64651;47.540;19.088;2024-02-26T11:33:36;99628.37;;;21.12;46.31
75972;BME280;64651;47.540;19.088;2024-02-26T11:38:39;99621.28;;;23.85;41.37
75972;BME280;64651;47.540;19.088;2024-02-26T11:44:01;99623.94;;;23.00;40.63
75972;BME280;64651;47.540;19.088;2024-02-26T11:59:45;99623.59;;;21.97;43.28
75972;BME280;64651;47.540;19.088;2024-02-26T12:04:48;99631.88;;;18.74;50.50
75972;BME280;64651;47.540;19.088;2024-02-26T12:09:52;99630.91;;;17.03;54.90
75972;BME280;64651;47.540;19.088;2024-02-26T12:14:56;99623.97;;;17.42;54.62
75972;BME280;64651;47.540;19.088;2024-02-26T12:20:11;99629.03;;;18.58;52.46
75972;BME280;64651;47.540;19.088;2024-02-26T12:25:15;99615.13;;;21.09;46.24
75972;BME280;64651;47.540;19.088;2024-02-26T12:30:18;99622.72;;;19.29;49.79
75972;BME280;64651;47.540;19.088;2024-02-26T12:35:21;99619.09;;;20.03;49.04
75972;BME280;64651;47.540;19.088;2024-02-26T12:40:23;99614.69;;;19.27;49.72
75972;BME280;64651;47.540;19.088;2024-02-26T12:45:26;99619.66;;;18.02;52.99
75972;BME280;64651;47.540;19.088;2024-02-26T12:50:29;99620.16;;;17.47;54.90
75972;BME280;64651;47.540;19.088;2024-02-26T12:55:34;99624.28;;;17.28;55.24
75972;BME280;64651;47.540;19.088;2024-02-26T13:00:38;99614.00;;;17.41;54.82
75972;BME280;64651;47.540;19.088;2024-02-26T13:05:41;99618.09;;;18.53;52.37
75972;BME280;64651;47.540;19.088;2024-02-26T13:10:45;99613.91;;;19.27;50.00
75972;BME280;64651;47.540;19.088;2024-02-26T13:15:47;99614.53;;;19.20;49.65
75972;BME280;64651;47.540;19.088;2024-02-26T13:20:50;99611.28;;;19.62;47.25
75972;BME280;64651;47.540;19.088;2024-02-26T13:25:56;99613.88;;;19.70;47.22
75972;BME280;64651;47.540;19.088;2024-02-26T13:30:59;99601.66;;;21.57;44.21
75972;BME280;64651;47.540;19.088;2024-02-26T13:36:02;99592.59;;;23.28;40.75
75972;BME280;64651;47.540;19.088;2024-02-26T13:41:05;99590.16;;;28.05;31.76
75972;BME280;64651;47.540;19.088;2024-02-26T13:46:07;99576.53;;;31.58;27.79
75972;BME280;64651;47.540;19.088;2024-02-26T13:51:10;99590.66;;;28.41;30.07
75972;BME280;64651;47.540;19.088;2024-02-26T13:56:12;99582.94;;;28.82;30.26
75972;BME280;64651;47.540;19.088;2024-02-26T14:01:15;99587.72;;;23.22;38.96
75972;BME280;64651;47.540;19.088;2024-02-26T14:06:17;99594.28;;;20.68;44.33
75972;BME280;64651;47.540;19.088;2024-02-26T14:11:20;99580.50;;;25.71;33.48
75972;BME280;64651;47.540;19.088;2024-02-26T14:16:22;99586.03;;;22.80;37.95
75972;BME280;64651;47.540;19.088;2024-02-26T14:21:24;99571.56;;;23.49;37.23
75972;BME280;64651;47.540;19.088;2024-02-26T14:26:26;99566.87;;;22.30;39.56
75972;BME280;64651;47.540;19.088;2024-02-26T14:31:29;99564.69;;;21.25;42.77
75972;BME280;64651;47.540;19.088;2024-02-26T14:36:31;99568.06;;;21.15;43.89
75972;BME280;64651;47.540;19.088;2024-02-26T14:41:33;99563.66;;;22.01;41.72
75972;BME280;64651;47.540;19.088;2024-02-26T14:46:36;99566.59;;;22.98;40.03
75972;BME280;64651;47.540;19.088;2024-02-26T14:51:39;99574.63;;;21.91;42.66
75972;BME280;64651;47.540;19.088;2024-02-26T14:56:41;99577.56;;;20.17;46.12
75972;BME280;64651;47.540;19.088;2024-02-26T15:01:43;99578.75;;;20.01;46.43
75972;BME280;64651;47.540;19.088;2024-02-26T15:06:48;99588.59;;;18.92;48.85
75972;BME280;64651;47.540;19.088;2024-02-26T15:11:50;99575.81;;;20.63;45.64
75972;BME280;64651;47.540;19.088;2024-02-26T15:16:53;99583.78;;;19.95;47.57
75972;BME280;64651;47.540;19.088;2024-02-26T15:21:55;99589.97;;;19.26;49.06
75972;BME280;64651;47.540;19.088;2024-02-26T15:26:57;99594.94;;;17.76;53.38
75972;BME280;64651;47.540;19.088;2024-02-26T15:31:59;99598.34;;;17.03;57.27
75972;BME280;64651;47.540;19.088;2024-02-26T15:37:02;99608.47;;;16.46;60.09
75972;BME280;64651;47.540;19.088;2024-02-26T15:42:04;99607.84;;;15.90;62.37
75972;BME280;64651;47.540;19.088;2024-02-26T15:47:07;99617.47;;;15.55;64.07
75972;BME280;64651;47.540;19.088;2024-02-26T15:52:09;99630.88;;;15.27;65.49
75972;BME280;64651;47.540;19.088;2024-02-26T15:57:12;99627.03;;;14.93;65.84
75972;BME280;64651;47.540;19.088;2024-02-26T16:02:14;99630.44;;;14.73;65.92
75972;BME280;64651;47.540;19.088;2024-02-26T16:07:23;99627.66;;;14.47;66.99
75972;BME280;64651;47.540;19.088;2024-02-26T16:12:43;99628.44;;;14.31;67.83
75972;BME280;64651;47.540;19.088;2024-02-26T16:17:47;99629.50;;;14.04;69.01
75972;BME280;64651;47.540;19.088;2024-02-26T16:22:50;99644.09;;;13.87;69.81
75972;BME280;64651;47.540;19.088;2024-02-26T16:27:53;99646.66;;;13.75;70.79
75972;BME280;64651;47.540;19.088;2024-02-26T16:32:55;99655.09;;;13.70;71.41
75972;BME280;64651;47.540;19.088;2024-02-26T16:37:57;99658.25;;;13.55;71.83
75972;BME280;64651;47.540;19.088;2024-02-26T16:42:59;99662.25;;;13.40;72.39
75972;BME280;64651;47.540;19.088;2024-02-26T16:48:05;99675.06;;;13.14;73.92
75972;BME280;64651;47.540;19.088;2024-02-26T16:53:08;99684.69;;;12.80;75.93
75972;BME280;64651;47.540;19.088;2024-02-26T16:58:10;99692.72;;;12.54;77.92
75972;BME280;64651;47.540;19.088;2024-02-26T17:03:12;99691.41;;;12.38;79.53
75972;BME280;64651;47.540;19.088;2024-02-26T17:08:15;99695.09;;;12.34;79.42
75972;BME280;64651;47.540;19.088;2024-02-26T17:13:17;99696.94;;;12.38;79.85
75972;BME280;64651;47.540;19.088;2024-02-26T17:18:20;99711.06;;;12.37;79.69
75972;BME280;64651;47.540;19.088;2024-02-26T17:23:23;99701.66;;;12.38;80.01
75972;BME280;64651;47.540;19.088;2024-02-26T17:28:25;99718.91;;;12.30;80.32
75972;BME280;64651;47.540;19.088;2024-02-26T17:33:28;99717.81;;;12.31;81.12
75972;BME280;64651;47.540;19.088;2024-02-26T17:38:30;99726.37;;;12.29;81.85
75972;BME280;64651;47.540;19.088;2024-02-26T17:43:32;99736.78;;;12.32;81.82
75972;BME280;64651;47.540;19.088;2024-02-26T17:48:35;99738.62;;;12.23;82.60
75972;BME280;64651;47.540;19.088;2024-02-26T17:53:37;99739.34;;;12.15;83.70
75972;BME280;64651;47.540;19.088;2024-02-26T17:58:40;99743.22;;;12.14;83.67
75972;BME280;64651;47.540;19.088;2024-02-26T18:03:44;99752.22;;;12.06;84.03
75972;BME280;64651;47.540;19.088;2024-02-26T18:08:46;99754.06;;;12.10;84.39
75972;BME280;64651;47.540;19.088;2024-02-26T18:13:48;99753.25;;;12.24;84.21
75972;BME280;64651;47.540;19.088;2024-02-26T18:18:50;99759.06;;;12.22;84.47
75972;BME280;64651;47.540;19.088;2024-02-26T18:23:53;99760.72;;;12.23;84.47
75972;BME280;64651;47.540;19.088;2024-02-26T18:28:55;99758.66;;;12.29;84.59
75972;BME280;64651;47.540;19.088;2024-02-26T18:33:57;99750.56;;;12.32;84.55
75972;BME280;64651;47.540;19.088;2024-02-26T18:38:59;99762.53;;;12.28;84.87
75972;BME280;64651;47.540;19.088;2024-02-26T18:44:02;99768.56;;;12.16;85.38
75972;BME280;64651;47.540;19.088;2024-02-26T18:49:05;99767.66;;;12.07;86.11
75972;BME280;64651;47.540;19.088;2024-02-26T18:54:07;99772.41;;;11.88;86.69
75972;BME280;64651;47.540;19.088;2024-02-26T18:59:10;99774.31;;;11.55;88.32
75972;BME280;64651;47.540;19.088;2024-02-26T19:04:16;99774.44;;;11.31;89.43
75972;BME280;64651;47.540;19.088;2024-02-26T19:09:19;99771.41;;;11.14;90.76
75972;BME280;64651;47.540;19.088;2024-02-26T19:14:21;99775.56;;;10.92;91.51
75972;BME280;64651;47.540;19.088;2024-02-26T19:19:23;99780.56;;;10.72;92.27
75972;BME280;64651;47.540;19.088;2024-02-26T19:24:26;99774.13;;;10.57;93.80
75972;BME280;64651;47.540;19.088;2024-02-26T19:29:30;99783.03;;;10.49;94.92
75972;BME280;64651;47.540;19.088;2024-02-26T19:34:35;99785.03;;;10.44;96.04
75972;BME280;64651;47.540;19.088;2024-02-26T19:39:43;99801.59;;;10.39;96.76
75972;BME280;64651;47.540;19.088;2024-02-26T19:44:45;99816.50;;;10.33;97.29
75972;BME280;64651;47.540;19.088;2024-02-26T19:49:48;99830.38;;;10.23;97.72
75972;BME280;64651;47.540;19.088;2024-02-26T19:54:57;99831.25;;;10.18;98.33
75972;BME280;64651;47.540;19.088;2024-02-26T20:00:12;99834.81;;;10.13;98.91
75972;BME280;64651;47.540;19.088;2024-02-26T20:05:57;99831.44;;;10.27;99.22
75972;BME280;64651;47.540;19.088;2024-02-26T20:22:05;99837.00;;;10.88;98.59
75972;BME280;64651;47.540;19.088;2024-02-26T20:38:42;99847.25;;;11.44;95.24
75972;BME280;64651;47.540;19.088;2024-02-26T20:43:54;99860.72;;;11.45;94.03
75972;BME280;64651;47.540;19.088;2024-02-26T20:49:15;99859.28;;;11.66;92.84
75972;BME280;64651;47.540;19.088;2024-02-26T20:54:26;99866.97;;;11.69;91.79
75972;BME280;64651;47.540;19.088;2024-02-26T20:59:36;99882.31;;;11.75;91.10
75972;BME280;64651;47.540;19.088;2024-02-26T21:04:43;99880.22;;;11.86;90.45
75972;BME280;64651;47.540;19.088;2024-02-26T21:10:07;99881.75;;;11.92;89.71
75972;BME280;64651;47.540;19.088;2024-02-26T21:15:12;99885.25;;;11.98;89.24
75972;BME280;64651;47.540;19.088;2024-02-26T21:20:15;99894.50;;;12.07;88.83
75972;BME280;64651;47.540;19.088;2024-02-26T21:25:21;99903.25;;;12.09;88.14
75972;BME280;64651;47.540;19.088;2024-02-26T21:30:23;99902.44;;;12.08;87.89
75972;BME280;64651;47.540;19.088;2024-02-26T21:35:25;99910.94;;;12.12;87.50
75972;BME280;64651;47.540;19.088;2024-02-26T21:40:53;99926.97;;;12.10;87.24
75972;BME280;64651;47.540;19.088;2024-02-26T21:45:56;99936.78;;;12.16;87.27
75972;BME280;64651;47.540;19.088;2024-02-26T21:51:01;99936.59;;;12.26;86.78
75972;BME280;64651;47.540;19.088;2024-02-26T21:56:10;99917.75;;;12.01;89.01
75972;BME280;64651;47.540;19.088;2024-02-26T22:01:12;99921.34;;;11.83;90.88
75972;BME280;64651;47.540;19.088;2024-02-26T22:06:15;99928.31;;;11.56;92.53
75972;BME280;64651;47.540;19.088;2024-02-26T22:11:18;99927.91;;;11.25;94.12
75972;BME280;64651;47.540;19.088;2024-02-26T22:16:26;99926.84;;;11.03;95.64
75972;BME280;64651;47.540;19.088;2024-02-26T22:21:28;99927.91;;;10.83;96.20
75972;BME280;64651;47.540;19.088;2024-02-26T22:26:42;99937.09;;;10.73;96.88
75972;BME280;64651;47.540;19.088;2024-02-26T22:31:46;99936.16;;;10.59;97.43
75972;BME280;64651;47.540;19.088;2024-02-26T22:36:54;99925.13;;;10.59;97.69
75972;BME280;64651;47.540;19.088;2024-02-26T22:41:59;99933.63;;;10.63;97.70
75972;BME280;64651;47.540;19.088;2024-02-26T22:47:08;99946.19;;;10.45;98.06
75972;BME280;64651;47.540;19.088;2024-02-26T22:52:31;99940.50;;;10.36;98.36
75972;BME280;64651;47.540;19.088;2024-02-26T22:57:33;99941.94;;;10.29;98.21
75972;BME280;64651;47.540;19.088;2024-02-26T23:02:35;99949.56;;;10.37;98.21
75972;BME280;64651;47.540;19.088;2024-02-26T23:07:38;99962.63;;;10.50;98.20
75972;BME280;64651;47.540;19.088;2024-02-26T23:12:41;99945.94;;;10.70;97.96
75972;BME280;64651;47.540;19.088;2024-02-26T23:17:44;99946.81;;;10.89;97.49
75972;BME280;64651;47.540;19.088;2024-02-26T23:22:47;99963.75;;;11.02;97.10
75972;BME280;64651;47.540;19.088;2024-02-26T23:27:50;99988.38;;;11.12;96.29
75972;BME280;64651;47.540;19.088;2024-02-26T23:32:52;99986.75;;;11.11;95.78
75972;BME280;64651;47.540;19.088;2024-02-26T23:37:55;99994.25;;;11.05;95.77
75972;BME280;64651;47.540;19.088;2024-02-26T23:42:57;100002.50;;;11.05;96.00
75972;BME280;64651;47.540;19.088;2024-02-26T23:47:59;99976.81;;;10.91;96.16
75972;BME280;64651;47.540;19.088;2024-02-26T23:53:02;99978.13;;;10.70;96.69
75972;BME280;64651;47.540;19.088;2024-02-26T23:58:06;99981.38;;;10.48;97.29
